University of Illinois Willard Airport
KCMI : now visible

Airfield :











YOU CAN JOIN US ON...

 
LOGIN :

Register | Disclaimer

   EN    FR    IT 

 









Legend :    VFR   Marginal VFR   IFR   Intensive IFR   Very Intensive IFR
Visi :
Ceiling :
>= 8 km
>= 3000ft
5 to 8 km
1000 to 3000 ft
1500m to 5 km
500 to 1000 ft
800 to 1500m
200 to 500 ft
< 800m
< 200 ft
Symbols :   Thunderstorms  Fog  Heavy snow  Heavy precipitations  Wind > 20 kt







- Airport Elevation : 755 ft
- IATA code : CMI


KCMI - University of Illinois Willard

CURRENT METAR :
  • 221053Z 16011KT 10SM CLR 13/05 A3008 RMK AO2 SLP184 T01280050

EXPIRED METARs :
  • 220953Z AUTO 15009KT 10SM CLR 13/05 A3007 RMK AO2 SLP181 T01280050
  • 220853Z AUTO 16010KT 10SM CLR 12/04 A3006 RMK AO2 SLP178 T01170044 56004

TAF KCMI
Valid from the 22 at 12:00 until the 23 at 12:00 UTC


221120Z 2212/2312 17011KT P6SM FEW120 SCT200
FM222000 19017G26KT P6SM SCT200
FM230200 19014KT P6SM BKN090
FM230900 27010KT P6SM BKN018
KZAU FIR / North America



MET'MAP, your aeronautical weather chart ! - Copyright ORBIFLY December 2007 - Disclaimer

ORBIFLY MET'MAP TEAM :

Programming & Development : Alexandra Zaïnal
Concept & Development : Baudouin d'Aumeries
Co-Development & Prog : Marc-Olivier Méhu
Technical & hardware support : Manuel Goepfert

Contact : metmap@orbifly.com




SOURCES & CREDITS :

   NOAA       Earth
Advisory